sensor_id;sensor_type;location;lat;lon;timestamp;P1;durP1;ratioP1;P2;durP2;ratioP2
7965;SDS011;4028;43.272;26.932;2022-07-15T00:01:31;5.38;;;1.63;;
7965;SDS011;4028;43.272;26.932;2022-07-15T00:03:59;2.40;;;1.90;;
7965;SDS011;4028;43.272;26.932;2022-07-15T00:06:24;2.08;;;1.88;;
7965;SDS011;4028;43.272;26.932;2022-07-15T00:08:50;1.98;;;1.60;;
7965;SDS011;4028;43.272;26.932;2022-07-15T00:11:15;2.30;;;1.92;;
7965;SDS011;4028;43.272;26.932;2022-07-15T00:13:41;2.65;;;1.88;;
7965;SDS011;4028;43.272;26.932;2022-07-15T00:16:07;1.70;;;1.60;;
7965;SDS011;4028;43.272;26.932;2022-07-15T00:18:32;2.70;;;1.80;;
7965;SDS011;4028;43.272;26.932;2022-07-15T00:20:58;2.85;;;1.60;;
7965;SDS011;4028;43.272;26.932;2022-07-15T00:23:23;1.90;;;1.75;;
7965;SDS011;4028;43.272;26.932;2022-07-15T00:25:49;2.33;;;1.80;;
7965;SDS011;4028;43.272;26.932;2022-07-15T00:28:14;2.40;;;1.88;;
7965;SDS011;4028;43.272;26.932;2022-07-15T00:30:41;1.90;;;1.80;;
7965;SDS011;4028;43.272;26.932;2022-07-15T00:33:07;3.70;;;1.98;;
7965;SDS011;4028;43.272;26.932;2022-07-15T00:35:34;2.65;;;1.80;;
7965;SDS011;4028;43.272;26.932;2022-07-15T00:38:01;3.58;;;2.03;;
7965;SDS011;4028;43.272;26.932;2022-07-15T00:40:28;3.10;;;1.98;;
7965;SDS011;4028;43.272;26.932;2022-07-15T00:42:54;2.50;;;1.80;;
7965;SDS011;4028;43.272;26.932;2022-07-15T00:45:21;2.47;;;1.90;;
7965;SDS011;4028;43.272;26.932;2022-07-15T00:47:50;4.28;;;2.15;;
7965;SDS011;4028;43.272;26.932;2022-07-15T00:50:17;2.60;;;1.75;;
7965;SDS011;4028;43.272;26.932;2022-07-15T00:52:45;5.50;;;2.05;;
7965;SDS011;4028;43.272;26.932;2022-07-15T00:55:15;4.32;;;2.13;;
7965;SDS011;4028;43.272;26.932;2022-07-15T00:57:44;2.90;;;2.00;;
7965;SDS011;4028;43.272;26.932;2022-07-15T01:00:11;3.67;;;2.00;;
7965;SDS011;4028;43.272;26.932;2022-07-15T01:02:41;6.45;;;2.20;;
7965;SDS011;4028;43.272;26.932;2022-07-15T01:05:15;2.20;;;2.00;;
7965;SDS011;4028;43.272;26.932;2022-07-15T01:07:42;2.88;;;1.65;;
7965;SDS011;4028;43.272;26.932;2022-07-15T01:10:07;2.58;;;1.85;;
7965;SDS011;4028;43.272;26.932;2022-07-15T01:12:34;3.67;;;1.70;;
7965;SDS011;4028;43.272;26.932;2022-07-15T01:15:03;2.95;;;1.98;;
7965;SDS011;4028;43.272;26.932;2022-07-15T01:17:29;3.55;;;2.17;;
7965;SDS011;4028;43.272;26.932;2022-07-15T01:19:56;7.55;;;2.10;;
7965;SDS011;4028;43.272;26.932;2022-07-15T01:22:22;2.28;;;1.80;;
7965;SDS011;4028;43.272;26.932;2022-07-15T01:24:48;4.40;;;1.98;;
7965;SDS011;4028;43.272;26.932;2022-07-15T01:27:13;1.95;;;1.80;;
7965;SDS011;4028;43.272;26.932;2022-07-15T01:29:39;3.65;;;1.80;;
7965;SDS011;4028;43.272;26.932;2022-07-15T01:32:05;3.42;;;2.38;;
7965;SDS011;4028;43.272;26.932;2022-07-15T01:34:30;3.70;;;2.10;;
7965;SDS011;4028;43.272;26.932;2022-07-15T01:36:56;2.50;;;1.70;;
7965;SDS011;4028;43.272;26.932;2022-07-15T01:39:21;2.08;;;1.88;;
7965;SDS011;4028;43.272;26.932;2022-07-15T01:41:47;4.15;;;2.03;;
7965;SDS011;4028;43.272;26.932;2022-07-15T01:44:12;1.80;;;1.70;;
7965;SDS011;4028;43.272;26.932;2022-07-15T01:46:41;5.80;;;1.95;;
7965;SDS011;4028;43.272;26.932;2022-07-15T01:49:06;2.05;;;1.70;;
7965;SDS011;4028;43.272;26.932;2022-07-15T01:51:48;2.38;;;2.17;;
7965;SDS011;4028;43.272;26.932;2022-07-15T01:54:15;3.05;;;1.70;;
7965;SDS011;4028;43.272;26.932;2022-07-15T01:56:41;4.65;;;2.03;;
7965;SDS011;4028;43.272;26.932;2022-07-15T01:59:07;6.15;;;2.13;;
7965;SDS011;4028;43.272;26.932;2022-07-15T02:01:32;2.72;;;2.10;;
7965;SDS011;4028;43.272;26.932;2022-07-15T02:03:58;5.53;;;1.83;;
7965;SDS011;4028;43.272;26.932;2022-07-15T02:06:23;3.40;;;2.00;;
7965;SDS011;4028;43.272;26.932;2022-07-15T02:08:49;2.55;;;1.90;;
7965;SDS011;4028;43.272;26.932;2022-07-15T02:11:14;2.60;;;1.70;;
7965;SDS011;4028;43.272;26.932;2022-07-15T02:13:40;2.45;;;1.90;;
7965;SDS011;4028;43.272;26.932;2022-07-15T02:16:05;2.83;;;2.00;;
7965;SDS011;4028;43.272;26.932;2022-07-15T02:18:31;3.50;;;2.00;;
7965;SDS011;4028;43.272;26.932;2022-07-15T02:20:56;2.05;;;1.50;;
7965;SDS011;4028;43.272;26.932;2022-07-15T02:23:22;2.05;;;1.80;;
7965;SDS011;4028;43.272;26.932;2022-07-15T02:25:48;3.00;;;1.90;;
7965;SDS011;4028;43.272;26.932;2022-07-15T02:28:14;4.30;;;2.08;;
7965;SDS011;4028;43.272;26.932;2022-07-15T02:30:41;4.75;;;2.25;;
7965;SDS011;4028;43.272;26.932;2022-07-15T02:33:08;5.85;;;2.35;;
7965;SDS011;4028;43.272;26.932;2022-07-15T02:35:34;3.03;;;2.00;;
7965;SDS011;4028;43.272;26.932;2022-07-15T02:38:00;2.45;;;1.88;;
7965;SDS011;4028;43.272;26.932;2022-07-15T02:40:27;7.07;;;2.53;;
7965;SDS011;4028;43.272;26.932;2022-07-15T02:42:54;10.93;;;2.25;;
7965;SDS011;4028;43.272;26.932;2022-07-15T02:45:22;4.10;;;2.00;;
7965;SDS011;4028;43.272;26.932;2022-07-15T02:47:51;5.32;;;2.13;;
7965;SDS011;4028;43.272;26.932;2022-07-15T02:50:17;2.83;;;2.00;;
7965;SDS011;4028;43.272;26.932;2022-07-15T02:52:43;7.90;;;2.63;;
7965;SDS011;4028;43.272;26.932;2022-07-15T02:55:10;6.90;;;2.42;;
7965;SDS011;4028;43.272;26.932;2022-07-15T02:57:37;4.40;;;2.13;;
7965;SDS011;4028;43.272;26.932;2022-07-15T03:00:03;2.75;;;2.25;;
7965;SDS011;4028;43.272;26.932;2022-07-15T03:02:30;3.42;;;2.55;;
7965;SDS011;4028;43.272;26.932;2022-07-15T03:04:55;4.35;;;2.33;;
7965;SDS011;4028;43.272;26.932;2022-07-15T03:07:21;4.20;;;2.25;;
7965;SDS011;4028;43.272;26.932;2022-07-15T03:09:47;3.47;;;2.63;;
7965;SDS011;4028;43.272;26.932;2022-07-15T03:12:13;6.70;;;2.47;;
7965;SDS011;4028;43.272;26.932;2022-07-15T03:14:38;5.22;;;2.22;;
7965;SDS011;4028;43.272;26.932;2022-07-15T03:17:06;8.18;;;2.55;;
7965;SDS011;4028;43.272;26.932;2022-07-15T03:19:32;3.05;;;2.00;;
7965;SDS011;4028;43.272;26.932;2022-07-15T03:21:58;6.57;;;2.40;;
7965;SDS011;4028;43.272;26.932;2022-07-15T03:24:24;5.38;;;2.75;;
7965;SDS011;4028;43.272;26.932;2022-07-15T03:26:49;3.47;;;2.58;;
7965;SDS011;4028;43.272;26.932;2022-07-15T03:29:15;2.95;;;2.40;;
7965;SDS011;4028;43.272;26.932;2022-07-15T03:31:43;4.60;;;3.23;;
7965;SDS011;4028;43.272;26.932;2022-07-15T03:34:09;7.40;;;3.03;;
7965;SDS011;4028;43.272;26.932;2022-07-15T03:36:38;6.20;;;2.80;;
7965;SDS011;4028;43.272;26.932;2022-07-15T03:39:07;7.00;;;3.00;;
7965;SDS011;4028;43.272;26.932;2022-07-15T03:41:33;5.88;;;2.83;;
7965;SDS011;4028;43.272;26.932;2022-07-15T03:44:00;12.52;;;3.47;;
7965;SDS011;4028;43.272;26.932;2022-07-15T03:46:26;4.70;;;2.67;;
7965;SDS011;4028;43.272;26.932;2022-07-15T03:48:52;6.75;;;3.35;;
7965;SDS011;4028;43.272;26.932;2022-07-15T03:51:17;5.45;;;2.63;;
7965;SDS011;4028;43.272;26.932;2022-07-15T03:53:43;3.80;;;2.70;;
7965;SDS011;4028;43.272;26.932;2022-07-15T03:56:08;6.93;;;2.70;;
7965;SDS011;4028;43.272;26.932;2022-07-15T03:58:34;5.47;;;3.20;;
7965;SDS011;4028;43.272;26.932;2022-07-15T04:00:59;7.28;;;3.38;;
7965;SDS011;4028;43.272;26.932;2022-07-15T04:03:25;5.45;;;3.45;;
7965;SDS011;4028;43.272;26.932;2022-07-15T04:05:50;10.43;;;3.53;;
7965;SDS011;4028;43.272;26.932;2022-07-15T04:08:16;10.20;;;3.83;;
7965;SDS011;4028;43.272;26.932;2022-07-15T04:10:41;6.13;;;3.47;;
7965;SDS011;4028;43.272;26.932;2022-07-15T04:13:07;9.02;;;4.45;;
7965;SDS011;4028;43.272;26.932;2022-07-15T04:15:32;15.55;;;3.72;;
7965;SDS011;4028;43.272;26.932;2022-07-15T04:17:58;7.95;;;3.97;;
7965;SDS011;4028;43.272;26.932;2022-07-15T04:20:24;7.63;;;3.45;;
7965;SDS011;4028;43.272;26.932;2022-07-15T04:22:50;6.97;;;3.40;;
7965;SDS011;4028;43.272;26.932;2022-07-15T04:25:17;7.22;;;3.65;;
7965;SDS011;4028;43.272;26.932;2022-07-15T04:27:43;13.02;;;4.18;;
7965;SDS011;4028;43.272;26.932;2022-07-15T04:30:10;8.68;;;3.83;;
7965;SDS011;4028;43.272;26.932;2022-07-15T04:32:37;9.13;;;4.30;;
7965;SDS011;4028;43.272;26.932;2022-07-15T04:35:03;6.80;;;4.40;;
7965;SDS011;4028;43.272;26.932;2022-07-15T04:37:28;8.60;;;4.95;;
7965;SDS011;4028;43.272;26.932;2022-07-15T04:39:54;10.50;;;4.90;;
7965;SDS011;4028;43.272;26.932;2022-07-15T04:42:21;11.80;;;5.00;;
7965;SDS011;4028;43.272;26.932;2022-07-15T04:44:46;17.77;;;6.20;;
7965;SDS011;4028;43.272;26.932;2022-07-15T04:47:12;13.73;;;5.65;;
7965;SDS011;4028;43.272;26.932;2022-07-15T04:49:38;14.35;;;5.35;;
7965;SDS011;4028;43.272;26.932;2022-07-15T04:52:22;9.77;;;5.25;;
7965;SDS011;4028;43.272;26.932;2022-07-15T04:54:47;8.55;;;5.13;;
7965;SDS011;4028;43.272;26.932;2022-07-15T04:57:13;11.32;;;4.82;;
7965;SDS011;4028;43.272;26.932;2022-07-15T04:59:39;11.90;;;5.35;;
7965;SDS011;4028;43.272;26.932;2022-07-15T05:02:04;17.10;;;5.85;;
7965;SDS011;4028;43.272;26.932;2022-07-15T05:04:30;12.50;;;5.10;;
7965;SDS011;4028;43.272;26.932;2022-07-15T05:06:55;13.57;;;4.80;;
7965;SDS011;4028;43.272;26.932;2022-07-15T05:09:21;13.77;;;5.35;;
7965;SDS011;4028;43.272;26.932;2022-07-15T05:11:46;13.35;;;5.45;;
7965;SDS011;4028;43.272;26.932;2022-07-15T05:14:12;10.15;;;5.18;;
7965;SDS011;4028;43.272;26.932;2022-07-15T05:16:37;12.93;;;4.85;;
7965;SDS011;4028;43.272;26.932;2022-07-15T05:19:03;13.80;;;5.13;;
7965;SDS011;4028;43.272;26.932;2022-07-15T05:21:29;11.38;;;5.43;;
7965;SDS011;4028;43.272;26.932;2022-07-15T05:23:54;8.93;;;5.10;;
7965;SDS011;4028;43.272;26.932;2022-07-15T05:26:20;12.73;;;5.05;;
7965;SDS011;4028;43.272;26.932;2022-07-15T05:28:46;11.05;;;4.93;;
7965;SDS011;4028;43.272;26.932;2022-07-15T05:31:12;7.00;;;4.60;;
7965;SDS011;4028;43.272;26.932;2022-07-15T05:33:38;9.38;;;4.57;;
7965;SDS011;4028;43.272;26.932;2022-07-15T05:36:04;12.63;;;4.50;;
7965;SDS011;4028;43.272;26.932;2022-07-15T05:38:30;8.25;;;3.75;;
7965;SDS011;4028;43.272;26.932;2022-07-15T05:40:55;10.15;;;4.22;;
7965;SDS011;4028;43.272;26.932;2022-07-15T05:43:21;11.48;;;4.80;;
7965;SDS011;4028;43.272;26.932;2022-07-15T05:45:47;12.52;;;5.15;;
7965;SDS011;4028;43.272;26.932;2022-07-15T05:48:12;10.77;;;5.22;;
7965;SDS011;4028;43.272;26.932;2022-07-15T05:50:37;12.35;;;5.22;;
7965;SDS011;4028;43.272;26.932;2022-07-15T05:53:03;14.77;;;5.10;;
7965;SDS011;4028;43.272;26.932;2022-07-15T05:55:28;15.60;;;4.93;;
7965;SDS011;4028;43.272;26.932;2022-07-15T05:57:54;9.75;;;4.38;;
7965;SDS011;4028;43.272;26.932;2022-07-15T06:00:20;7.38;;;4.03;;
7965;SDS011;4028;43.272;26.932;2022-07-15T06:02:45;6.07;;;3.83;;
7965;SDS011;4028;43.272;26.932;2022-07-15T06:05:11;8.18;;;3.63;;
7965;SDS011;4028;43.272;26.932;2022-07-15T06:07:37;10.38;;;3.60;;
7965;SDS011;4028;43.272;26.932;2022-07-15T06:10:03;7.70;;;3.40;;
7965;SDS011;4028;43.272;26.932;2022-07-15T06:12:29;8.45;;;3.60;;
7965;SDS011;4028;43.272;26.932;2022-07-15T06:14:55;9.07;;;3.40;;
7965;SDS011;4028;43.272;26.932;2022-07-15T06:17:20;8.88;;;3.35;;
7965;SDS011;4028;43.272;26.932;2022-07-15T06:19:46;12.63;;;5.07;;
7965;SDS011;4028;43.272;26.932;2022-07-15T06:22:12;11.63;;;5.57;;
7965;SDS011;4028;43.272;26.932;2022-07-15T06:24:37;13.35;;;4.40;;
7965;SDS011;4028;43.272;26.932;2022-07-15T06:27:03;13.60;;;4.70;;
7965;SDS011;4028;43.272;26.932;2022-07-15T06:29:28;18.10;;;4.90;;
7965;SDS011;4028;43.272;26.932;2022-07-15T06:31:54;13.85;;;5.05;;
7965;SDS011;4028;43.272;26.932;2022-07-15T06:34:19;14.60;;;4.50;;
7965;SDS011;4028;43.272;26.932;2022-07-15T06:36:45;18.95;;;5.25;;
7965;SDS011;4028;43.272;26.932;2022-07-15T06:39:10;12.23;;;5.07;;
7965;SDS011;4028;43.272;26.932;2022-07-15T06:41:36;10.88;;;4.80;;
7965;SDS011;4028;43.272;26.932;2022-07-15T06:44:01;11.45;;;4.60;;
7965;SDS011;4028;43.272;26.932;2022-07-15T06:46:30;15.77;;;4.85;;
7965;SDS011;4028;43.272;26.932;2022-07-15T06:48:55;8.60;;;4.45;;
7965;SDS011;4028;43.272;26.932;2022-07-15T06:51:21;7.85;;;4.45;;
7965;SDS011;4028;43.272;26.932;2022-07-15T06:53:47;16.65;;;4.18;;
7965;SDS011;4028;43.272;26.932;2022-07-15T06:56:12;8.95;;;4.25;;
7965;SDS011;4028;43.272;26.932;2022-07-15T06:58:38;8.23;;;3.60;;
7965;SDS011;4028;43.272;26.932;2022-07-15T07:01:04;8.30;;;3.75;;
7965;SDS011;4028;43.272;26.932;2022-07-15T07:03:30;12.63;;;3.58;;
7965;SDS011;4028;43.272;26.932;2022-07-15T07:05:55;10.77;;;3.90;;
7965;SDS011;4028;43.272;26.932;2022-07-15T07:08:22;6.50;;;3.60;;
7965;SDS011;4028;43.272;26.932;2022-07-15T07:10:47;6.10;;;3.53;;
7965;SDS011;4028;43.272;26.932;2022-07-15T07:13:13;10.20;;;3.35;;
7965;SDS011;4028;43.272;26.932;2022-07-15T07:15:38;9.82;;;3.40;;
7965;SDS011;4028;43.272;26.932;2022-07-15T07:18:04;10.15;;;3.63;;
7965;SDS011;4028;43.272;26.932;2022-07-15T07:20:30;6.93;;;3.65;;
7965;SDS011;4028;43.272;26.932;2022-07-15T07:22:55;9.45;;;3.47;;
7965;SDS011;4028;43.272;26.932;2022-07-15T07:25:22;11.02;;;3.83;;
7965;SDS011;4028;43.272;26.932;2022-07-15T07:27:48;8.40;;;4.20;;
7965;SDS011;4028;43.272;26.932;2022-07-15T07:30:13;10.15;;;4.20;;
7965;SDS011;4028;43.272;26.932;2022-07-15T07:32:39;13.70;;;4.20;;
7965;SDS011;4028;43.272;26.932;2022-07-15T07:35:04;6.50;;;4.70;;
7965;SDS011;4028;43.272;26.932;2022-07-15T07:37:34;6.53;;;4.60;;
7965;SDS011;4028;43.272;26.932;2022-07-15T07:40:01;9.18;;;3.70;;
7965;SDS011;4028;43.272;26.932;2022-07-15T07:42:27;6.07;;;3.38;;
7965;SDS011;4028;43.272;26.932;2022-07-15T07:44:53;4.03;;;3.22;;
7965;SDS011;4028;43.272;26.932;2022-07-15T07:47:18;9.68;;;3.42;;
7965;SDS011;4028;43.272;26.932;2022-07-15T07:49:46;4.70;;;3.10;;
7965;SDS011;4028;43.272;26.932;2022-07-15T07:52:12;6.93;;;3.40;;
7965;SDS011;4028;43.272;26.932;2022-07-15T07:54:39;9.23;;;3.20;;
7965;SDS011;4028;43.272;26.932;2022-07-15T07:57:06;7.43;;;3.78;;
7965;SDS011;4028;43.272;26.932;2022-07-15T07:59:32;9.38;;;3.58;;
7965;SDS011;4028;43.272;26.932;2022-07-15T08:01:57;9.02;;;3.50;;
7965;SDS011;4028;43.272;26.932;2022-07-15T08:04:23;7.35;;;3.30;;
7965;SDS011;4028;43.272;26.932;2022-07-15T08:06:49;3.97;;;3.03;;
7965;SDS011;4028;43.272;26.932;2022-07-15T08:09:15;8.48;;;3.10;;
7965;SDS011;4028;43.272;26.932;2022-07-15T08:11:41;6.95;;;3.50;;
7965;SDS011;4028;43.272;26.932;2022-07-15T08:14:07;4.03;;;3.20;;
7965;SDS011;4028;43.272;26.932;2022-07-15T08:16:33;6.07;;;2.80;;
7965;SDS011;4028;43.272;26.932;2022-07-15T08:18:59;7.13;;;3.17;;
7965;SDS011;4028;43.272;26.932;2022-07-15T08:21:25;4.55;;;3.17;;
7965;SDS011;4028;43.272;26.932;2022-07-15T08:23:50;5.13;;;3.22;;
7965;SDS011;4028;43.272;26.932;2022-07-15T08:26:16;8.32;;;2.90;;
7965;SDS011;4028;43.272;26.932;2022-07-15T08:28:48;5.20;;;3.10;;
7965;SDS011;4028;43.272;26.932;2022-07-15T08:31:14;3.75;;;2.53;;
7965;SDS011;4028;43.272;26.932;2022-07-15T08:33:39;3.00;;;2.55;;
7965;SDS011;4028;43.272;26.932;2022-07-15T08:36:05;5.60;;;3.05;;
7965;SDS011;4028;43.272;26.932;2022-07-15T08:38:30;2.95;;;2.75;;
7965;SDS011;4028;43.272;26.932;2022-07-15T08:40:56;6.80;;;2.28;;
7965;SDS011;4028;43.272;26.932;2022-07-15T08:43:22;3.72;;;2.70;;
7965;SDS011;4028;43.272;26.932;2022-07-15T08:45:48;7.65;;;2.60;;
7965;SDS011;4028;43.272;26.932;2022-07-15T08:48:13;4.38;;;2.80;;
7965;SDS011;4028;43.272;26.932;2022-07-15T08:50:41;6.55;;;3.25;;
7965;SDS011;4028;43.272;26.932;2022-07-15T08:53:08;3.83;;;2.33;;
7965;SDS011;4028;43.272;26.932;2022-07-15T08:55:34;2.55;;;2.28;;
7965;SDS011;4028;43.272;26.932;2022-07-15T08:57:59;6.22;;;2.50;;
7965;SDS011;4028;43.272;26.932;2022-07-15T09:00:25;4.70;;;2.30;;
7965;SDS011;4028;43.272;26.932;2022-07-15T09:03:01;4.22;;;2.80;;
7965;SDS011;4028;43.272;26.932;2022-07-15T09:16:05;5.72;;;2.55;;
7965;SDS011;4028;43.272;26.932;2022-07-15T09:18:40;4.63;;;2.40;;
7965;SDS011;4028;43.272;26.932;2022-07-15T09:21:17;4.80;;;2.10;;
7965;SDS011;4028;43.272;26.932;2022-07-15T09:23:45;5.13;;;2.55;;
7965;SDS011;4028;43.272;26.932;2022-07-15T09:26:24;4.20;;;2.50;;
7965;SDS011;4028;43.272;26.932;2022-07-15T09:28:55;4.65;;;2.85;;
7965;SDS011;4028;43.272;26.932;2022-07-15T09:34:13;4.40;;;2.20;;
7965;SDS011;4028;43.272;26.932;2022-07-15T09:36:40;3.03;;;2.20;;
7965;SDS011;4028;43.272;26.932;2022-07-15T09:39:08;2.67;;;2.45;;
7965;SDS011;4028;43.272;26.932;2022-07-15T09:41:34;2.53;;;2.08;;
7965;SDS011;4028;43.272;26.932;2022-07-15T09:44:05;2.42;;;2.22;;
7965;SDS011;4028;43.272;26.932;2022-07-15T09:51:59;3.67;;;2.47;;
7965;SDS011;4028;43.272;26.932;2022-07-15T09:54:29;2.85;;;1.98;;
7965;SDS011;4028;43.272;26.932;2022-07-15T09:57:00;3.75;;;2.10;;
7965;SDS011;4028;43.272;26.932;2022-07-15T09:59:27;3.25;;;2.08;;
7965;SDS011;4028;43.272;26.932;2022-07-15T10:01:54;3.85;;;2.00;;
7965;SDS011;4028;43.272;26.932;2022-07-15T10:04:20;3.22;;;2.13;;
7965;SDS011;4028;43.272;26.932;2022-07-15T10:06:49;7.50;;;2.17;;
7965;SDS011;4028;43.272;26.932;2022-07-15T10:09:19;3.13;;;2.00;;
7965;SDS011;4028;43.272;26.932;2022-07-15T10:11:50;2.42;;;2.00;;
7965;SDS011;4028;43.272;26.932;2022-07-15T10:20:23;4.78;;;2.13;;
7965;SDS011;4028;43.272;26.932;2022-07-15T10:28:58;3.08;;;2.17;;
7965;SDS011;4028;43.272;26.932;2022-07-15T10:31:28;3.17;;;2.25;;
7965;SDS011;4028;43.272;26.932;2022-07-15T10:36:39;3.30;;;2.20;;
7965;SDS011;4028;43.272;26.932;2022-07-15T10:39:47;6.72;;;2.30;;
7965;SDS011;4028;43.272;26.932;2022-07-15T10:42:22;2.50;;;2.30;;
7965;SDS011;4028;43.272;26.932;2022-07-15T10:47:23;2.80;;;2.05;;
7965;SDS011;4028;43.272;26.932;2022-07-15T10:49:48;5.25;;;2.58;;
7965;SDS011;4028;43.272;26.932;2022-07-15T10:52:19;7.20;;;2.17;;
7965;SDS011;4028;43.272;26.932;2022-07-15T10:54:49;4.13;;;2.20;;
7965;SDS011;4028;43.272;26.932;2022-07-15T10:57:15;3.85;;;2.13;;
7965;SDS011;4028;43.272;26.932;2022-07-15T10:59:51;4.03;;;2.22;;
7965;SDS011;4028;43.272;26.932;2022-07-15T11:02:19;2.83;;;2.10;;
7965;SDS011;4028;43.272;26.932;2022-07-15T11:04:47;2.20;;;2.00;;
7965;SDS011;4028;43.272;26.932;2022-07-15T11:17:38;4.93;;;1.92;;
7965;SDS011;4028;43.272;26.932;2022-07-15T11:20:09;6.78;;;2.30;;
7965;SDS011;4028;43.272;26.932;2022-07-15T11:22:37;3.15;;;2.30;;
7965;SDS011;4028;43.272;26.932;2022-07-15T11:25:06;4.78;;;2.22;;
7965;SDS011;4028;43.272;26.932;2022-07-15T11:27:41;2.85;;;1.92;;
7965;SDS011;4028;43.272;26.932;2022-07-15T11:30:06;3.50;;;2.00;;
7965;SDS011;4028;43.272;26.932;2022-07-15T11:32:32;2.97;;;2.10;;
7965;SDS011;4028;43.272;26.932;2022-07-15T11:35:00;3.60;;;2.03;;
7965;SDS011;4028;43.272;26.932;2022-07-15T11:37:28;4.45;;;2.20;;
7965;SDS011;4028;43.272;26.932;2022-07-15T11:40:08;2.70;;;2.00;;
7965;SDS011;4028;43.272;26.932;2022-07-15T11:42:58;3.25;;;2.17;;
7965;SDS011;4028;43.272;26.932;2022-07-15T11:45:43;3.90;;;2.00;;
7965;SDS011;4028;43.272;26.932;2022-07-15T11:48:09;4.03;;;2.22;;
7965;SDS011;4028;43.272;26.932;2022-07-15T11:50:48;3.05;;;2.20;;
7965;SDS011;4028;43.272;26.932;2022-07-15T11:53:18;3.53;;;2.22;;
7965;SDS011;4028;43.272;26.932;2022-07-15T11:55:48;5.50;;;2.10;;
7965;SDS011;4028;43.272;26.932;2022-07-15T11:58:13;4.60;;;2.50;;
7965;SDS011;4028;43.272;26.932;2022-07-15T12:00:39;4.00;;;1.85;;
7965;SDS011;4028;43.272;26.932;2022-07-15T12:03:08;3.10;;;2.20;;
7965;SDS011;4028;43.272;26.932;2022-07-15T12:05:33;2.08;;;1.88;;
7965;SDS011;4028;43.272;26.932;2022-07-15T12:07:59;4.13;;;2.10;;
7965;SDS011;4028;43.272;26.932;2022-07-15T12:10:35;2.28;;;2.08;;
7965;SDS011;4028;43.272;26.932;2022-07-15T12:13:03;3.75;;;2.28;;
7965;SDS011;4028;43.272;26.932;2022-07-15T12:15:30;2.58;;;2.38;;
7965;SDS011;4028;43.272;26.932;2022-07-15T12:17:57;4.97;;;2.10;;
7965;SDS011;4028;43.272;26.932;2022-07-15T12:20:23;2.00;;;1.80;;
7965;SDS011;4028;43.272;26.932;2022-07-15T12:26:00;6.18;;;3.00;;
7965;SDS011;4028;43.272;26.932;2022-07-15T12:28:30;4.20;;;2.92;;
7965;SDS011;4028;43.272;26.932;2022-07-15T12:30:56;5.57;;;2.30;;
7965;SDS011;4028;43.272;26.932;2022-07-15T12:33:22;3.83;;;2.17;;
7965;SDS011;4028;43.272;26.932;2022-07-15T12:35:48;3.92;;;2.10;;
7965;SDS011;4028;43.272;26.932;2022-07-15T12:38:33;2.40;;;2.20;;
7965;SDS011;4028;43.272;26.932;2022-07-15T12:41:05;1.90;;;1.80;;
7965;SDS011;4028;43.272;26.932;2022-07-15T12:46:17;2.38;;;2.08;;
7965;SDS011;4028;43.272;26.932;2022-07-15T12:48:45;4.38;;;2.20;;
7965;SDS011;4028;43.272;26.932;2022-07-15T12:51:13;3.58;;;2.38;;
7965;SDS011;4028;43.272;26.932;2022-07-15T12:53:40;4.55;;;2.10;;
7965;SDS011;4028;43.272;26.932;2022-07-15T12:56:06;4.85;;;2.25;;
7965;SDS011;4028;43.272;26.932;2022-07-15T12:58:32;5.35;;;2.40;;
7965;SDS011;4028;43.272;26.932;2022-07-15T13:01:23;4.97;;;2.08;;
7965;SDS011;4028;43.272;26.932;2022-07-15T13:03:48;3.40;;;2.40;;
7965;SDS011;4028;43.272;26.932;2022-07-15T13:06:17;7.38;;;2.45;;
7965;SDS011;4028;43.272;26.932;2022-07-15T13:08:44;5.50;;;2.40;;
7965;SDS011;4028;43.272;26.932;2022-07-15T13:11:09;2.60;;;2.40;;
7965;SDS011;4028;43.272;26.932;2022-07-15T13:13:36;2.45;;;1.98;;
7965;SDS011;4028;43.272;26.932;2022-07-15T13:16:03;5.20;;;2.35;;
7965;SDS011;4028;43.272;26.932;2022-07-15T13:18:31;5.22;;;2.00;;
7965;SDS011;4028;43.272;26.932;2022-07-15T13:20:58;2.85;;;2.28;;
7965;SDS011;4028;43.272;26.932;2022-07-15T13:23:24;7.78;;;2.60;;
7965;SDS011;4028;43.272;26.932;2022-07-15T13:25:51;4.05;;;2.05;;
7965;SDS011;4028;43.272;26.932;2022-07-15T13:28:19;3.92;;;2.28;;
7965;SDS011;4028;43.272;26.932;2022-07-15T13:30:45;5.63;;;1.90;;
7965;SDS011;4028;43.272;26.932;2022-07-15T13:33:11;3.17;;;2.47;;
7965;SDS011;4028;43.272;26.932;2022-07-15T13:35:38;6.53;;;2.25;;
7965;SDS011;4028;43.272;26.932;2022-07-15T13:38:04;3.35;;;1.95;;
7965;SDS011;4028;43.272;26.932;2022-07-15T13:40:29;5.95;;;1.95;;
7965;SDS011;4028;43.272;26.932;2022-07-15T13:42:55;3.70;;;2.30;;
7965;SDS011;4028;43.272;26.932;2022-07-15T13:45:21;4.30;;;2.25;;
7965;SDS011;4028;43.272;26.932;2022-07-15T13:47:47;4.22;;;2.30;;
7965;SDS011;4028;43.272;26.932;2022-07-15T13:50:13;3.25;;;1.90;;
7965;SDS011;4028;43.272;26.932;2022-07-15T13:52:57;6.40;;;2.17;;
7965;SDS011;4028;43.272;26.932;2022-07-15T13:55:24;4.90;;;2.00;;
7965;SDS011;4028;43.272;26.932;2022-07-15T13:57:50;2.55;;;1.98;;
7965;SDS011;4028;43.272;26.932;2022-07-15T14:00:17;5.88;;;2.15;;
7965;SDS011;4028;43.272;26.932;2022-07-15T14:02:48;3.83;;;2.20;;
7965;SDS011;4028;43.272;26.932;2022-07-15T14:05:14;2.75;;;2.08;;
7965;SDS011;4028;43.272;26.932;2022-07-15T14:07:40;3.40;;;2.17;;
7965;SDS011;4028;43.272;26.932;2022-07-15T14:10:06;2.95;;;2.00;;
7965;SDS011;4028;43.272;26.932;2022-07-15T14:12:32;6.18;;;2.22;;
7965;SDS011;4028;43.272;26.932;2022-07-15T14:14:58;2.70;;;2.50;;
7965;SDS011;4028;43.272;26.932;2022-07-15T14:17:24;3.67;;;2.78;;
7965;SDS011;4028;43.272;26.932;2022-07-15T14:19:50;10.15;;;3.20;;
7965;SDS011;4028;43.272;26.932;2022-07-15T14:22:16;2.55;;;2.13;;
7965;SDS011;4028;43.272;26.932;2022-07-15T14:24:41;6.28;;;2.03;;
7965;SDS011;4028;43.272;26.932;2022-07-15T14:27:07;4.32;;;2.30;;
7965;SDS011;4028;43.272;26.932;2022-07-15T14:29:33;3.20;;;1.80;;
7965;SDS011;4028;43.272;26.932;2022-07-15T14:31:59;11.98;;;2.35;;
7965;SDS011;4028;43.272;26.932;2022-07-15T14:34:24;2.88;;;2.50;;
7965;SDS011;4028;43.272;26.932;2022-07-15T14:36:50;4.03;;;2.30;;
7965;SDS011;4028;43.272;26.932;2022-07-15T14:39:15;2.92;;;2.47;;
7965;SDS011;4028;43.272;26.932;2022-07-15T14:41:41;3.00;;;2.45;;
7965;SDS011;4028;43.272;26.932;2022-07-15T14:44:07;2.58;;;2.10;;
7965;SDS011;4028;43.272;26.932;2022-07-15T14:46:33;5.47;;;2.38;;
7965;SDS011;4028;43.272;26.932;2022-07-15T14:48:59;6.28;;;2.28;;
7965;SDS011;4028;43.272;26.932;2022-07-15T14:51:24;3.13;;;2.20;;
7965;SDS011;4028;43.272;26.932;2022-07-15T14:53:50;5.30;;;2.80;;
7965;SDS011;4028;43.272;26.932;2022-07-15T14:56:15;8.23;;;3.17;;
7965;SDS011;4028;43.272;26.932;2022-07-15T14:58:41;3.03;;;2.72;;
7965;SDS011;4028;43.272;26.932;2022-07-15T15:01:06;3.13;;;2.58;;
7965;SDS011;4028;43.272;26.932;2022-07-15T15:03:32;8.57;;;3.50;;
7965;SDS011;4028;43.272;26.932;2022-07-15T15:05:57;7.25;;;2.80;;
7965;SDS011;4028;43.272;26.932;2022-07-15T15:08:24;5.63;;;2.80;;
7965;SDS011;4028;43.272;26.932;2022-07-15T15:10:50;3.60;;;2.70;;
7965;SDS011;4028;43.272;26.932;2022-07-15T15:13:15;3.38;;;2.38;;
7965;SDS011;4028;43.272;26.932;2022-07-15T15:15:41;2.05;;;1.92;;
7965;SDS011;4028;43.272;26.932;2022-07-15T15:18:07;4.20;;;2.10;;
7965;SDS011;4028;43.272;26.932;2022-07-15T15:20:33;2.58;;;2.10;;
7965;SDS011;4028;43.272;26.932;2022-07-15T15:22:59;6.13;;;2.17;;
7965;SDS011;4028;43.272;26.932;2022-07-15T15:25:24;3.05;;;2.60;;
7965;SDS011;4028;43.272;26.932;2022-07-15T15:28:08;4.28;;;2.17;;
7965;SDS011;4028;43.272;26.932;2022-07-15T15:30:34;4.38;;;2.10;;
7965;SDS011;4028;43.272;26.932;2022-07-15T15:33:00;4.95;;;2.25;;
7965;SDS011;4028;43.272;26.932;2022-07-15T15:35:26;5.05;;;2.85;;
7965;SDS011;4028;43.272;26.932;2022-07-15T15:37:51;9.30;;;5.32;;
7965;SDS011;4028;43.272;26.932;2022-07-15T15:40:17;4.57;;;3.10;;
7965;SDS011;4028;43.272;26.932;2022-07-15T15:42:42;4.90;;;2.97;;
7965;SDS011;4028;43.272;26.932;2022-07-15T15:45:08;4.07;;;2.90;;
7965;SDS011;4028;43.272;26.932;2022-07-15T15:47:34;4.40;;;2.80;;
7965;SDS011;4028;43.272;26.932;2022-07-15T15:50:00;2.80;;;2.47;;
7965;SDS011;4028;43.272;26.932;2022-07-15T15:52:25;5.55;;;4.03;;